Time;durP1;ratioP1;P1;durP2;ratioP2;P2;SDS_P1;SDS_P2;PMS_P1;PMS_P2;Temp;Humidity;BMP_temperature;BMP_pressure;BME280_temperature;BME280_humidity;BME280_pressure;Samples;Min_cycle;Max_cycle;Signal;HPM_P1;HPM_P2
2021/07/24 00:00:43;;;;;;;1.85;1.30;;;19.40;99.90;;;;;;5043662;28;20029;-86
2021/07/24 00:03:09;;;;;;;1.20;1.10;;;19.30;99.90;;;;;;5035983;28;20057;-86
2021/07/24 00:05:35;;;;;;;0.40;0.40;;;19.40;99.90;;;;;;5041838;28;20025;-86
2021/07/24 00:08:01;;;;;;;3.80;1.73;;;19.40;99.90;;;;;;5041634;28;20021;-86
2021/07/24 00:10:26;;;;;;;1.63;1.27;;;19.40;99.90;;;;;;5029876;28;20025;-85
2021/07/24 00:12:52;;;;;;;2.10;1.57;;;19.50;99.90;;;;;;5028822;28;20049;-85
2021/07/24 00:15:18;;;;;;;1.77;1.67;;;19.60;99.90;;;;;;5041808;28;20034;-86
2021/07/24 00:17:44;;;;;;;2.95;2.17;;;19.60;99.90;;;;;;5029142;28;20450;-86
2021/07/24 00:20:11;;;;;;;2.65;2.15;;;19.50;99.90;;;;;;5048523;28;20137;-86
2021/07/24 00:22:37;;;;;;;;;;;19.40;99.90;;;;;;5038178;28;20025;-86
2021/07/24 00:25:03;;;;;;;0.55;0.55;;;19.40;99.90;;;;;;5029242;28;20379;-86
2021/07/24 00:27:29;;;;;;;0.73;0.65;;;19.50;99.90;;;;;;5044560;28;20099;-86
2021/07/24 00:29:55;;;;;;;15.13;2.20;;;19.60;99.90;;;;;;5047913;28;20294;-86
2021/07/24 00:32:21;;;;;;;9.77;1.97;;;19.40;99.90;;;;;;5032670;28;20117;-86
2021/07/24 00:34:46;;;;;;;0.82;0.80;;;19.20;99.90;;;;;;5030238;28;20037;-86
2021/07/24 00:37:17;;;;;;;4.17;2.30;;;19.10;99.90;;;;;;5032740;28;20041;-87
2021/07/24 00:39:43;;;;;;;2.33;1.27;;;19.10;99.90;;;;;;5043087;28;20040;-86
2021/07/24 00:42:18;;;;;;;1.80;1.53;;;19.20;99.90;;;;;;5041717;28;20695;-86
2021/07/24 00:44:50;;;;;;;2.63;1.75;;;19.20;99.90;;;;;;5033023;28;20017;-86
2021/07/24 00:47:17;;;;;;;2.05;1.85;;;19.20;99.90;;;;;;5048597;28;20060;-86
2021/07/24 00:49:46;;;;;;;2.40;1.38;;;19.10;99.90;;;;;;5037673;28;20521;-86
2021/07/24 00:52:15;;;;;;;3.47;3.15;;;19.10;99.90;;;;;;5040213;28;20492;-86
2021/07/24 00:54:42;;;;;;;2.13;1.85;;;19.10;99.90;;;;;;5045954;28;20029;-87
2021/07/24 00:57:08;;;;;;;1.77;1.67;;;19.00;99.90;;;;;;5048647;28;20055;-86
2021/07/24 00:59:35;;;;;;;10.23;1.42;;;18.90;99.90;;;;;;5037367;28;20021;-86
2021/07/24 01:02:01;;;;;;;0.90;0.85;;;18.80;99.90;;;;;;5030468;28;20506;-86
2021/07/24 01:04:27;;;;;;;0.60;0.60;;;18.80;99.90;;;;;;5035362;28;20396;-86
2021/07/24 01:06:53;;;;;;;1.47;1.37;;;18.80;99.90;;;;;;5045904;28;20030;-86
2021/07/24 01:09:19;;;;;;;3.75;2.60;;;18.90;99.90;;;;;;5045758;28;20128;-86
2021/07/24 01:11:45;;;;;;;1.33;1.15;;;18.80;99.90;;;;;;5039316;28;20521;-86
2021/07/24 01:14:11;;;;;;;0.60;0.60;;;18.80;99.90;;;;;;5044273;28;20128;-86
2021/07/24 01:16:38;;;;;;;1.70;1.38;;;18.70;99.90;;;;;;5032788;28;20105;-86
2021/07/24 01:19:03;;;;;;;2.08;1.60;;;18.80;99.90;;;;;;5041043;28;20017;-86
2021/07/24 01:21:30;;;;;;;1.80;1.23;;;18.70;99.90;;;;;;5049731;28;20070;-86
2021/07/24 01:23:57;;;;;;;3.35;1.48;;;18.80;99.90;;;;;;5033728;28;20113;-86
2021/07/24 01:26:25;;;;;;;0.90;0.90;;;18.80;99.90;;;;;;5033316;28;20044;-86
2021/07/24 01:28:51;;;;;;;1.00;1.00;;;19.00;99.90;;;;;;5050585;28;20516;-86
2021/07/24 01:31:17;;;;;;;2.00;1.58;;;18.60;99.90;;;;;;5040335;28;20033;-86
2021/07/24 01:33:43;;;;;;;1.60;1.52;;;18.60;99.90;;;;;;5049891;28;20040;-86
2021/07/24 01:36:09;;;;;;;1.30;1.03;;;18.60;99.90;;;;;;5032331;28;20405;-86
2021/07/24 01:38:38;;;;;;;3.37;1.60;;;18.80;99.90;;;;;;5034025;28;20071;-86
2021/07/24 01:41:12;;;;;;;16.67;2.60;;;18.80;99.90;;;;;;5031502;28;20061;-86
2021/07/24 01:43:38;;;;;;;9.85;3.40;;;18.70;99.90;;;;;;5033361;28;20013;-86
2021/07/24 01:46:05;;;;;;;1.75;1.30;;;18.70;99.90;;;;;;5051555;28;20032;-87
2021/07/24 01:53:57;;;;;;;3.33;1.38;;;18.80;99.90;;;;;;5033716;28;20460;-86
2021/07/24 01:56:27;;;;;;;2.08;1.88;;;18.90;99.90;;;;;;5039620;28;20501;-86
2021/07/24 01:58:53;;;;;;;6.45;3.80;;;18.70;99.90;;;;;;5033621;28;20040;-86
2021/07/24 02:01:22;;;;;;;0.90;0.83;;;18.70;99.90;;;;;;5044652;28;20037;-86
2021/07/24 02:04:10;;;;;;;2.20;1.65;;;18.80;99.90;;;;;;5050574;28;20048;-86
2021/07/24 02:06:36;;;;;;;1.80;1.70;;;18.70;99.90;;;;;;5045258;28;20103;-87
2021/07/24 02:09:02;;;;;;;0.73;0.73;;;18.70;99.90;;;;;;5029474;28;20037;-86
2021/07/24 02:11:28;;;;;;;5.57;1.93;;;18.60;99.90;;;;;;5032927;28;20029;-86
2021/07/24 02:13:54;;;;;;;2.38;2.17;;;18.60;99.90;;;;;;5029783;28;20032;-86
2021/07/24 02:16:19;;;;;;;3.43;1.90;;;18.50;99.90;;;;;;5034803;28;20029;-86
2021/07/24 02:18:46;;;;;;;1.40;1.17;;;18.30;99.90;;;;;;5045790;28;20428;-87
2021/07/24 02:21:13;;;;;;;2.78;2.55;;;18.50;99.90;;;;;;5050724;28;20045;-86
2021/07/24 02:23:39;;;;;;;1.17;0.95;;;18.40;99.90;;;;;;5049732;28;20029;-86
2021/07/24 02:26:05;;;;;;;8.43;2.00;;;18.50;99.90;;;;;;5041181;28;20074;-86
2021/07/24 02:28:31;;;;;;;3.63;2.23;;;18.40;99.90;;;;;;5030545;28;20026;-86
2021/07/24 02:30:56;;;;;;;2.53;2.33;;;18.50;99.90;;;;;;5049973;28;20267;-86
2021/07/24 02:33:22;;;;;;;8.40;2.17;;;18.40;99.90;;;;;;5031183;28;20037;-86
2021/07/24 02:35:49;;;;;;;2.73;1.93;;;18.50;99.90;;;;;;5040844;28;20029;-85
2021/07/24 02:38:15;;;;;;;1.63;1.13;;;18.50;99.90;;;;;;5046722;28;20104;-85
2021/07/24 02:40:41;;;;;;;0.75;0.75;;;18.60;99.90;;;;;;5035100;28;20582;-85
2021/07/24 02:43:07;;;;;;;2.17;1.97;;;18.70;99.90;;;;;;5039247;28;20057;-85
2021/07/24 02:45:33;;;;;;;4.03;1.13;;;18.50;99.90;;;;;;5030288;28;20107;-86
2021/07/24 02:47:58;;;;;;;9.73;2.60;;;18.50;99.90;;;;;;5038491;28;20401;-86
2021/07/24 02:50:24;;;;;;;4.00;1.87;;;18.50;99.90;;;;;;5037236;28;20470;-86
2021/07/24 02:52:50;;;;;;;5.93;2.30;;;18.50;99.90;;;;;;5043515;28;20029;-86
2021/07/24 02:55:16;;;;;;;1.60;1.50;;;18.50;99.90;;;;;;5001695;28;1377884;-86
2021/07/24 02:57:42;;;;;;;3.58;1.83;;;18.50;99.90;;;;;;5031105;28;20033;-86
2021/07/24 03:00:09;;;;;;;1.67;1.20;;;18.50;99.90;;;;;;5040292;28;20037;-86
2021/07/24 03:02:34;;;;;;;1.98;1.85;;;18.60;99.90;;;;;;5030876;28;20113;-86
2021/07/24 03:05:00;;;;;;;5.60;1.87;;;18.50;99.90;;;;;;5035174;28;20501;-86
2021/07/24 03:07:26;;;;;;;3.20;2.17;;;18.50;99.90;;;;;;5039732;28;20047;-86
2021/07/24 03:09:52;;;;;;;4.43;1.20;;;18.40;99.90;;;;;;5038009;28;20402;-86
2021/07/24 03:12:17;;;;;;;1.43;1.40;;;18.30;99.90;;;;;;5042839;28;20067;-86
2021/07/24 03:14:44;;;;;;;3.33;2.87;;;18.30;99.90;;;;;;5038533;28;20029;-86
2021/07/24 03:17:10;;;;;;;1.63;1.27;;;18.30;99.90;;;;;;5036312;28;20021;-87
2021/07/24 03:19:36;;;;;;;12.80;2.53;;;18.20;99.90;;;;;;5038946;28;20021;-86
2021/07/24 03:22:02;;;;;;;5.50;2.47;;;18.20;99.90;;;;;;5038507;28;20107;-85
2021/07/24 03:24:27;;;;;;;11.87;2.00;;;18.20;99.90;;;;;;5033567;28;20034;-84
2021/07/24 03:26:53;;;;;;;16.53;3.00;;;18.10;99.90;;;;;;5030209;28;20026;-83
2021/07/24 03:29:19;;;;;;;4.60;2.00;;;18.00;99.90;;;;;;5042711;28;20436;-82
2021/07/24 03:31:45;;;;;;;1.15;1.05;;;18.00;99.90;;;;;;5031855;28;20025;-82
2021/07/24 03:34:11;;;;;;;6.93;2.80;;;18.00;99.90;;;;;;5036205;28;20440;-82
2021/07/24 03:36:36;;;;;;;3.33;1.50;;;18.00;99.90;;;;;;5029424;28;20520;-82
2021/07/24 03:39:03;;;;;;;5.70;3.00;;;18.10;99.90;;;;;;5041319;28;20522;-82
2021/07/24 03:41:29;;;;;;;7.57;2.72;;;18.00;99.90;;;;;;5035929;28;20563;-82
2021/07/24 03:43:54;;;;;;;4.72;2.53;;;18.00;99.90;;;;;;5045273;28;20032;-82
2021/07/24 03:46:21;;;;;;;2.10;1.90;;;18.00;99.90;;;;;;5044859;28;20044;-82
2021/07/24 03:48:49;;;;;;;3.03;1.70;;;18.00;99.90;;;;;;5036954;28;20025;-81
2021/07/24 03:51:15;;;;;;;1.33;1.23;;;18.00;99.90;;;;;;5026795;28;20111;-82
2021/07/24 03:53:42;;;;;;;;;;;18.00;99.90;;;;;;5049037;28;20437;-83
2021/07/24 03:56:15;;;;;;;1.80;1.63;;;18.10;99.90;;;;;;5048865;28;20415;-83
2021/07/24 03:58:42;;;;;;;1.00;1.00;;;18.00;99.90;;;;;;5032614;28;20512;-83
2021/07/24 04:01:09;;;;;;;6.43;3.17;;;18.00;99.90;;;;;;5045795;28;20039;-83
2021/07/24 04:03:34;;;;;;;3.05;2.38;;;18.00;99.90;;;;;;5041155;28;20021;-83
2021/07/24 04:06:01;;;;;;;2.97;2.77;;;18.00;99.90;;;;;;5043844;28;20926;-83
2021/07/24 04:08:26;;;;;;;0.85;0.85;;;17.90;99.90;;;;;;5042731;28;20060;-83
2021/07/24 04:10:53;;;;;;;1.73;1.63;;;18.00;99.90;;;;;;5030570;28;20068;-83
2021/07/24 04:13:19;;;;;;;3.75;2.22;;;18.00;99.90;;;;;;5042741;28;20021;-83
2021/07/24 04:15:45;;;;;;;0.75;0.75;;;17.90;99.90;;;;;;5047781;28;20028;-83
2021/07/24 04:18:11;;;;;;;1.75;1.40;;;18.00;99.90;;;;;;5047502;28;20457;-83
2021/07/24 04:20:38;;;;;;;2.73;1.23;;;18.00;99.90;;;;;;5049213;28;20033;-83
2021/07/24 04:23:04;;;;;;;;;;;17.90;99.90;;;;;;5035193;28;20116;-83
2021/07/24 04:25:30;;;;;;;1.05;1.00;;;17.90;99.90;;;;;;5028553;28;20399;-83
2021/07/24 04:27:55;;;;;;;0.67;0.67;;;18.00;99.90;;;;;;5037005;28;20037;-83
2021/07/24 04:30:21;;;;;;;2.07;1.67;;;17.90;99.90;;;;;;5039718;28;20055;-83
2021/07/24 04:32:47;;;;;;;0.90;0.90;;;17.90;99.90;;;;;;5037889;28;20029;-83
2021/07/24 04:35:13;;;;;;;1.70;1.60;;;17.90;99.90;;;;;;5028672;28;20029;-83
2021/07/24 04:37:39;;;;;;;5.90;2.80;;;17.80;99.90;;;;;;5027430;28;20084;-83
2021/07/24 04:40:05;;;;;;;3.97;1.23;;;17.80;99.90;;;;;;5042461;28;20029;-84
2021/07/24 04:42:34;;;;;;;1.65;1.55;;;17.80;99.90;;;;;;5041864;28;20017;-84
2021/07/24 04:45:00;;;;;;;1.88;1.70;;;17.80;99.90;;;;;;5048791;28;20028;-84
2021/07/24 04:47:25;;;;;;;9.57;3.03;;;17.90;99.90;;;;;;5048329;28;20025;-83
2021/07/24 04:49:53;;;;;;;1.50;1.33;;;17.80;99.90;;;;;;5048360;28;20907;-83
2021/07/24 04:52:20;;;;;;;3.80;1.98;;;17.90;99.90;;;;;;5036792;28;20033;-83
2021/07/24 04:54:47;;;;;;;3.17;2.00;;;17.90;99.90;;;;;;5028886;28;20107;-84
2021/07/24 04:57:14;;;;;;;1.10;1.05;;;17.90;99.90;;;;;;5037347;28;20198;-83
2021/07/24 04:59:47;;;;;;;2.67;1.25;;;17.90;99.90;;;;;;5034681;28;20025;-84
2021/07/24 05:02:18;;;;;;;4.72;2.17;;;17.90;99.90;;;;;;5037353;28;20029;-83
2021/07/24 05:04:46;;;;;;;1.23;1.23;;;18.00;99.90;;;;;;5028927;28;20493;-82
2021/07/24 05:07:12;;;;;;;2.45;1.58;;;18.00;99.90;;;;;;5028776;28;20832;-83
2021/07/24 05:09:41;;;;;;;5.00;2.10;;;18.10;99.90;;;;;;5031884;28;20057;-83
2021/07/24 05:12:08;;;;;;;2.33;1.23;;;18.20;99.90;;;;;;5034728;28;20040;-83
2021/07/24 05:14:35;;;;;;;2.88;1.92;;;18.30;99.90;;;;;;5036298;28;20097;-83
2021/07/24 05:17:09;;;;;;;2.60;2.38;;;18.40;99.90;;;;;;5035367;28;20033;-83
2021/07/24 05:19:42;;;;;;;4.05;2.00;;;18.40;99.90;;;;;;5046350;28;20122;-84
2021/07/24 05:22:09;;;;;;;2.60;1.65;;;18.50;99.90;;;;;;5034530;28;20047;-84
2021/07/24 05:24:36;;;;;;;2.80;2.20;;;18.70;99.90;;;;;;5043471;28;20503;-85
2021/07/24 05:27:02;;;;;;;;;;;18.70;99.90;;;;;;5029118;28;20056;-84
2021/07/24 05:29:28;;;;;;;1.27;1.00;;;18.80;99.90;;;;;;5028014;28;19905;-83
2021/07/24 05:31:54;;;;;;;5.03;1.03;;;18.60;99.90;;;;;;5036963;28;20029;-83
2021/07/24 05:34:20;;;;;;;2.07;1.83;;;18.80;99.90;;;;;;5037083;28;20108;-83
2021/07/24 05:36:46;;;;;;;2.35;1.42;;;18.80;99.90;;;;;;5039068;28;20078;-83
2021/07/24 05:39:12;;;;;;;2.10;0.67;;;18.80;99.90;;;;;;5042313;28;20406;-83
2021/07/24 05:41:38;;;;;;;2.25;1.58;;;18.90;99.90;;;;;;5028412;28;20347;-83
2021/07/24 05:44:04;;;;;;;6.70;2.70;;;18.80;99.90;;;;;;5027897;28;20164;-83
2021/07/24 05:46:30;;;;;;;2.93;1.80;;;18.80;99.90;;;;;;5034200;28;20030;-83
2021/07/24 05:48:55;;;;;;;3.83;2.17;;;18.80;99.90;;;;;;5030780;28;20033;-83
2021/07/24 05:51:21;;;;;;;2.73;1.97;;;18.90;99.90;;;;;;5039207;28;20123;-84
2021/07/24 05:53:47;;;;;;;1.13;1.07;;;18.90;99.90;;;;;;5049765;28;20033;-84
2021/07/24 05:56:12;;;;;;;1.60;1.13;;;18.90;99.90;;;;;;5047996;28;20121;-84
2021/07/24 05:58:38;;;;;;;1.93;1.60;;;18.80;99.90;;;;;;5049208;28;20069;-86
2021/07/24 06:01:11;;;;;;;11.63;3.23;;;18.70;99.90;;;;;;5048983;28;20029;-85
2021/07/24 06:03:38;;;;;;;1.60;1.23;;;18.80;99.90;;;;;;5048884;28;20029;-84
2021/07/24 06:06:04;;;;;;;3.40;2.10;;;18.80;99.90;;;;;;5031170;28;20644;-84
2021/07/24 06:08:30;;;;;;;1.75;1.00;;;19.40;99.90;;;;;;5034781;28;20044;-85
2021/07/24 06:11:03;;;;;;;0.77;0.70;;;19.40;99.90;;;;;;5040113;28;20408;-84
2021/07/24 06:13:29;;;;;;;3.72;1.65;;;19.60;99.90;;;;;;5037242;28;20032;-84
2021/07/24 06:15:55;;;;;;;0.85;0.85;;;19.70;99.90;;;;;;5042319;28;20060;-84
2021/07/24 06:18:21;;;;;;;0.35;0.35;;;19.90;99.90;;;;;;5045949;28;20405;-83
2021/07/24 06:20:48;;;;;;;1.20;1.10;;;19.80;99.90;;;;;;5037684;28;20039;-83
2021/07/24 06:23:17;;;;;;;4.60;0.77;;;20.20;99.90;;;;;;5038019;28;20029;-82
2021/07/24 06:25:46;;;;;;;1.00;0.95;;;22.20;99.90;;;;;;5044051;28;20033;-83
2021/07/24 06:28:12;;;;;;;0.57;0.57;;;25.40;99.90;;;;;;5048058;28;20036;-83
2021/07/24 06:30:39;;;;;;;4.72;0.50;;;25.10;99.20;;;;;;5040974;28;20036;-82
2021/07/24 06:33:05;;;;;;;4.15;1.90;;;24.90;97.10;;;;;;5044444;28;20041;-83
2021/07/24 06:35:31;;;;;;;0.90;0.80;;;21.70;99.90;;;;;;5044810;28;20033;-82
2021/07/24 06:37:57;;;;;;;3.80;1.00;;;20.90;99.90;;;;;;5047325;28;20493;-83
2021/07/24 06:40:23;;;;;;;0.43;0.43;;;21.70;99.90;;;;;;5031245;28;20025;-84
2021/07/24 06:42:49;;;;;;;0.25;0.25;;;24.50;99.90;;;;;;5036924;28;20018;-84
2021/07/24 06:45:15;;;;;;;0.20;0.20;;;23.40;98.50;;;;;;5036642;28;20526;-83
2021/07/24 06:47:41;;;;;;;0.97;0.67;;;24.10;97.90;;;;;;5044371;28;20051;-83
2021/07/24 06:50:07;;;;;;;0.32;0.28;;;27.20;93.80;;;;;;5044178;28;20275;-84
2021/07/24 06:52:33;;;;;;;;;;;28.60;91.00;;;;;;5035961;28;20041;-82
2021/07/24 06:54:58;;;;;;;0.00;0.00;;;29.00;84.10;;;;;;5043708;28;19916;-82
2021/07/24 06:57:24;;;;;;;0.50;0.50;;;25.60;89.20;;;;;;5040496;28;20190;-82
2021/07/24 06:59:50;;;;;;;0.00;0.00;;;27.70;82.20;;;;;;5036234;28;20542;-83
2021/07/24 07:02:16;;;;;;;0.47;0.30;;;25.40;87.50;;;;;;5036893;28;20029;-83
2021/07/24 07:04:42;;;;;;;0.17;0.17;;;24.70;90.20;;;;;;5038214;28;20037;-82
2021/07/24 07:07:08;;;;;;;1.00;0.43;;;23.90;90.00;;;;;;5033854;28;20032;-83
2021/07/24 07:09:35;;;;;;;1.65;0.55;;;22.90;92.70;;;;;;5034281;28;20029;-83
2021/07/24 07:12:01;;;;;;;1.67;0.70;;;24.00;98.40;;;;;;5033014;28;20029;-83
2021/07/24 07:14:28;;;;;;;1.85;1.08;;;24.70;89.80;;;;;;5037305;28;20025;-84
2021/07/24 07:16:54;;;;;;;0.45;0.43;;;24.70;90.60;;;;;;5037011;28;20027;-82
2021/07/24 07:19:20;;;;;;;0.00;0.00;;;25.70;87.70;;;;;;5039819;28;20116;-83
2021/07/24 07:21:46;;;;;;;0.88;0.30;;;30.30;76.80;;;;;;5032457;28;20088;-85
2021/07/24 07:24:15;;;;;;;0.45;0.45;;;31.70;67.40;;;;;;5036131;28;20813;-86
2021/07/24 07:26:42;;;;;;;0.10;0.10;;;33.30;60.60;;;;;;5028825;28;20120;-85
2021/07/24 07:29:08;;;;;;;0.32;0.30;;;36.00;49.80;;;;;;5034471;28;20036;-85
2021/07/24 07:31:36;;;;;;;2.08;1.17;;;33.80;47.50;;;;;;5029244;28;20405;-84
2021/07/24 07:34:03;;;;;;;0.20;0.20;;;34.00;45.90;;;;;;5036192;28;20025;-84
2021/07/24 07:36:29;;;;;;;0.13;0.13;;;31.70;46.00;;;;;;5029380;28;20079;-85
2021/07/24 07:38:56;;;;;;;0.10;0.10;;;34.80;43.60;;;;;;5040069;28;20024;-85
2021/07/24 07:41:23;;;;;;;0.88;0.20;;;36.70;33.00;;;;;;5037995;28;20034;-85
2021/07/24 07:43:49;;;;;;;2.65;2.45;;;34.10;32.00;;;;;;5034121;28;20017;-85
2021/07/24 07:46:18;;;;;;;0.40;0.40;;;30.00;45.20;;;;;;5030762;28;20060;-84
2021/07/24 07:48:44;;;;;;;0.03;0.03;;;27.50;54.50;;;;;;5034935;28;20048;-84
2021/07/24 07:51:10;;;;;;;0.10;0.10;;;26.10;59.40;;;;;;5039229;28;20037;-84
2021/07/24 07:53:36;;;;;;;;;;;28.60;59.10;;;;;;5029327;28;20065;-84
2021/07/24 07:56:03;;;;;;;0.93;0.93;;;34.10;39.60;;;;;;5039045;28;19971;-84
2021/07/24 07:58:28;;;;;;;0.30;0.30;;;33.50;34.20;;;;;;5031347;28;20025;-84
2021/07/24 08:00:55;;;;;;;0.10;0.10;;;29.90;55.40;;;;;;5038856;28;20033;-84
2021/07/24 08:03:24;;;;;;;0.30;0.28;;;28.10;45.70;;;;;;5035462;28;20033;-84
2021/07/24 08:05:54;;;;;;;0.20;0.20;;;26.80;52.30;;;;;;5040596;28;20063;-85
2021/07/24 08:08:20;;;;;;;0.20;0.20;;;27.90;52.10;;;;;;5046626;28;20025;-85
2021/07/24 08:10:46;;;;;;;0.17;0.17;;;30.90;44.70;;;;;;5048109;28;20032;-85
2021/07/24 08:13:18;;;;;;;0.10;0.10;;;28.40;46.60;;;;;;5043230;28;20045;-85
2021/07/24 08:15:46;;;;;;;0.73;0.30;;;29.00;49.10;;;;;;5030005;28;20032;-85
2021/07/24 08:18:11;;;;;;;0.10;0.10;;;27.70;49.70;;;;;;5027883;28;20037;-85
2021/07/24 08:20:41;;;;;;;0.10;0.08;;;27.40;50.20;;;;;;5039598;28;20447;-85
2021/07/24 08:23:08;;;;;;;0.70;0.55;;;27.30;52.20;;;;;;5040624;28;20052;-89
2021/07/24 08:25:35;;;;;;;0.85;0.22;;;27.20;63.40;;;;;;5031915;28;20530;-85
2021/07/24 08:28:04;;;;;;;0.00;0.00;;;28.70;49.40;;;;;;5034666;28;20033;-85
2021/07/24 08:30:31;;;;;;;0.30;0.30;;;30.60;43.10;;;;;;5033298;28;20033;-86
2021/07/24 08:32:58;;;;;;;3.42;3.13;;;31.60;40.30;;;;;;5032668;28;20162;-85
2021/07/24 08:35:24;;;;;;;4.20;1.65;;;28.40;48.20;;;;;;5030901;28;20033;-85
2021/07/24 08:37:50;;;;;;;4.25;1.50;;;27.50;49.60;;;;;;5034302;28;20064;-85
2021/07/24 08:40:17;;;;;;;0.85;0.30;;;25.40;55.90;;;;;;5033572;28;20793;-84
2021/07/24 08:42:43;;;;;;;;;;;23.80;62.70;;;;;;5036698;28;20104;-85
2021/07/24 08:45:13;;;;;;;0.38;0.38;;;23.30;66.50;;;;;;5035187;28;19913;-84
2021/07/24 08:47:40;;;;;;;0.20;0.10;;;23.60;66.40;;;;;;5030331;28;20506;-85
2021/07/24 08:50:08;;;;;;;0.35;0.35;;;25.30;61.90;;;;;;5037570;28;20050;-85
2021/07/24 08:52:35;;;;;;;0.57;0.57;;;31.10;45.70;;;;;;5036676;28;20061;-85
2021/07/24 08:55:04;;;;;;;0.40;0.40;;;34.10;36.80;;;;;;5040518;28;20033;-85
2021/07/24 08:57:35;;;;;;;0.28;0.28;;;35.20;33.80;;;;;;5047740;28;20041;-84
2021/07/24 09:00:15;;;;;;;0.00;0.00;;;30.20;38.10;;;;;;5044522;28;20029;-85
2021/07/24 09:02:43;;;;;;;0.13;0.13;;;28.50;44.30;;;;;;5029512;28;20709;-84
2021/07/24 09:05:16;;;;;;;0.00;0.00;;;27.10;48.70;;;;;;5033611;28;20037;-84
2021/07/24 09:07:48;;;;;;;0.00;0.00;;;26.10;53.20;;;;;;5028573;28;20044;-84
2021/07/24 09:10:16;;;;;;;0.20;0.20;;;25.50;55.80;;;;;;5030756;28;20584;-84
2021/07/24 09:12:46;;;;;;;0.30;0.30;;;25.10;57.40;;;;;;5035139;28;20483;-84
2021/07/24 09:15:15;;;;;;;0.55;0.55;;;24.70;59.00;;;;;;5036262;28;20040;-83
2021/07/24 09:17:41;;;;;;;0.10;0.05;;;24.70;60.30;;;;;;5030250;28;20401;-86
2021/07/24 09:20:08;;;;;;;0.40;0.40;;;29.70;49.20;;;;;;5035277;28;20044;-86
2021/07/24 09:22:39;;;;;;;0.20;0.20;;;33.00;40.30;;;;;;5039425;28;20021;-86
2021/07/24 09:25:17;;;;;;;0.22;0.22;;;36.10;24.00;;;;;;5039295;28;20045;-86
2021/07/24 09:27:47;;;;;;;0.10;0.10;;;36.50;28.80;;;;;;5045391;28;20795;-85
2021/07/24 09:30:28;;;;;;;0.22;0.00;;;37.10;21.60;;;;;;5034194;28;20029;-86
2021/07/24 09:33:06;;;;;;;0.00;0.00;;;31.50;30.30;;;;;;5039873;28;20139;-84
2021/07/24 09:35:43;;;;;;;0.00;0.00;;;26.90;44.10;;;;;;5048455;28;21945;-85
2021/07/24 09:38:31;;;;;;;0.30;0.10;;;25.10;49.70;;;;;;5037721;28;20136;-85
2021/07/24 09:40:58;;;;;;;0.20;0.20;;;23.80;55.30;;;;;;5030818;28;20025;-86
2021/07/24 09:43:44;;;;;;;0.00;0.00;;;23.60;57.00;;;;;;5032189;28;20437;-86
2021/07/24 09:46:17;;;;;;;0.00;0.00;;;23.00;59.70;;;;;;5030778;28;20036;-86
2021/07/24 09:48:50;;;;;;;0.10;0.10;;;22.70;60.90;;;;;;5031721;28;20056;-86
2021/07/24 09:51:32;;;;;;;0.52;0.52;;;22.80;62.70;;;;;;5035600;28;20055;-86
2021/07/24 09:53:59;;;;;;;8.15;1.00;;;22.90;63.30;;;;;;5036902;28;20025;-85
2021/07/24 09:56:44;;;;;;;1.75;0.85;;;22.90;62.70;;;;;;5042306;28;20049;-87
2021/07/24 09:59:23;;;;;;;0.10;0.10;;;23.20;62.80;;;;;;5042791;28;20053;-86
2021/07/24 10:01:58;;;;;;;0.00;0.00;;;24.70;61.30;;;;;;5043373;28;20032;-86
2021/07/24 10:04:31;;;;;;;0.10;0.00;;;34.70;36.00;;;;;;5041548;28;20067;-87
2021/07/24 10:07:03;;;;;;;0.10;0.10;;;35.90;28.90;;;;;;5032142;28;20021;-86
2021/07/24 10:09:32;;;;;;;1.60;0.77;;;33.50;28.90;;;;;;5040303;28;20424;-87
2021/07/24 10:12:00;;;;;;;0.00;0.00;;;29.20;40.20;;;;;;5038439;28;20021;-87
2021/07/24 10:14:27;;;;;;;0.00;0.00;;;31.60;39.80;;;;;;5042670;28;20400;-87
2021/07/24 10:16:53;;;;;;;;;;;33.10;28.20;;;;;;5042365;28;20045;-87
2021/07/24 10:19:20;;;;;;;0.40;0.35;;;33.30;28.20;;;;;;5040337;28;19911;-86
2021/07/24 10:21:48;;;;;;;0.35;0.35;;;32.90;33.60;;;;;;5040461;28;20584;-87
2021/07/24 10:24:15;;;;;;;0.38;0.25;;;36.70;23.00;;;;;;5044074;28;20474;-87
2021/07/24 10:27:12;;;;;;;0.55;0.17;;;37.20;19.50;;;;;;5043641;28;20029;-87
2021/07/24 10:30:04;;;;;;;0.17;0.10;;;39.30;17.30;;;;;;5044325;28;20041;-88
2021/07/24 10:32:37;;;;;;;0.10;0.10;;;35.50;19.00;;;;;;5043945;28;20083;-88
2021/07/24 10:35:04;;;;;;;0.95;0.40;;;30.90;26.40;;;;;;5036291;28;20041;-86
2021/07/24 10:37:39;;;;;;;0.00;0.00;;;28.40;31.80;;;;;;5034759;28;20863;-87
2021/07/24 10:40:19;;;;;;;0.95;0.30;;;27.20;37.30;;;;;;5033218;28;20100;-87
2021/07/24 10:42:53;;;;;;;0.22;0.22;;;26.50;42.20;;;;;;5041887;28;20100;-87
2021/07/24 10:45:35;;;;;;;0.00;0.00;;;29.70;38.10;;;;;;5038929;28;20498;-87
2021/07/24 10:48:16;;;;;;;0.13;0.13;;;29.30;34.50;;;;;;5037968;28;20033;-87
2021/07/24 10:50:54;;;;;;;0.08;0.08;;;30.80;28.40;;;;;;5037184;28;20033;-86
2021/07/24 10:53:29;;;;;;;2.42;1.55;;;32.90;27.30;;;;;;5033944;28;20128;-86
2021/07/24 10:55:56;;;;;;;0.03;0.03;;;36.10;19.70;;;;;;5039485;28;20076;-85
2021/07/24 10:58:24;;;;;;;0.10;0.10;;;36.20;21.60;;;;;;5039966;28;20040;-85
2021/07/24 11:00:52;;;;;;;0.08;0.08;;;37.50;18.10;;;;;;5038671;28;20028;-86
2021/07/24 11:03:38;;;;;;;0.40;0.25;;;33.50;18.50;;;;;;5040497;28;20028;-86
2021/07/24 11:06:27;;;;;;;0.10;0.10;;;30.70;27.00;;;;;;5035283;28;20086;-87
2021/07/24 11:09:14;;;;;;;0.25;0.25;;;29.70;29.00;;;;;;5035256;28;21404;-86
2021/07/24 11:11:41;;;;;;;0.00;0.00;;;28.60;30.90;;;;;;5039643;28;20385;-86
2021/07/24 11:14:09;;;;;;;0.00;0.00;;;28.10;31.60;;;;;;5037733;28;20032;-85
2021/07/24 11:17:05;;;;;;;0.00;0.00;;;28.90;35.00;;;;;;5031874;28;21147;-86
2021/07/24 11:19:36;;;;;;;0.38;0.22;;;28.00;34.50;;;;;;5038292;28;20816;-85
2021/07/24 11:22:10;;;;;;;0.00;0.00;;;28.30;36.30;;;;;;5037522;28;20033;-85
2021/07/24 11:24:37;;;;;;;0.30;0.30;;;27.70;36.60;;;;;;5035254;28;20025;-87
2021/07/24 11:27:04;;;;;;;0.30;0.30;;;26.60;38.60;;;;;;5034908;28;20029;-87
2021/07/24 11:29:31;;;;;;;0.17;0.17;;;25.70;41.80;;;;;;5035987;28;20022;-86
2021/07/24 11:32:02;;;;;;;0.05;0.05;;;26.60;42.80;;;;;;5036224;28;20501;-87
2021/07/24 11:34:31;;;;;;;0.10;0.10;;;27.30;40.60;;;;;;5039206;28;20032;-86
2021/07/24 11:36:58;;;;;;;0.10;0.10;;;26.60;40.20;;;;;;5037531;28;20993;-86
2021/07/24 11:39:34;;;;;;;0.17;0.17;;;26.60;52.20;;;;;;5036253;28;20536;-87
2021/07/24 11:42:00;;;;;;;;;;;27.30;42.00;;;;;;5032995;28;20116;-87
2021/07/24 11:44:28;;;;;;;0.10;0.10;;;26.90;40.50;;;;;;5034371;28;19999;-86
2021/07/24 11:47:01;;;;;;;0.13;0.13;;;26.30;53.80;;;;;;5031277;28;20057;-86
2021/07/24 11:49:28;;;;;;;1.35;0.70;;;25.80;43.80;;;;;;5036765;28;20025;-86
2021/07/24 11:51:57;;;;;;;0.20;0.03;;;26.20;44.10;;;;;;5032865;28;20112;-86
2021/07/24 11:54:33;;;;;;;0.17;0.10;;;27.30;41.70;;;;;;5031138;28;20106;-87
2021/07/24 11:57:00;;;;;;;0.20;0.20;;;28.00;39.90;;;;;;5039270;28;20048;-86
2021/07/24 11:59:34;;;;;;;0.03;0.03;;;27.90;39.50;;;;;;5031371;28;20021;-85
2021/07/24 12:02:01;;;;;;;0.10;0.10;;;28.00;38.50;;;;;;5036856;28;20393;-86
2021/07/24 12:04:27;;;;;;;1.65;0.17;;;28.10;37.80;;;;;;5039786;28;20018;-86
2021/07/24 12:06:59;;;;;;;0.25;0.25;;;27.60;37.90;;;;;;5039139;28;20033;-86
2021/07/24 12:09:26;;;;;;;0.20;0.20;;;26.60;40.60;;;;;;5038572;28;20063;-86
2021/07/24 12:11:54;;;;;;;0.35;0.35;;;26.80;40.10;;;;;;5038366;28;20497;-86
2021/07/24 12:14:25;;;;;;;0.35;0.35;;;26.30;40.70;;;;;;5037479;28;20026;-85
2021/07/24 12:17:11;;;;;;;0.95;0.38;;;26.30;42.30;;;;;;5038003;28;20408;-86
2021/07/24 12:19:42;;;;;;;2.00;0.45;;;26.50;44.20;;;;;;5032669;28;20029;-87
2021/07/24 12:22:24;;;;;;;0.10;0.10;;;26.30;44.40;;;;;;5034242;28;20555;-86
2021/07/24 12:24:51;;;;;;;0.20;0.20;;;26.70;43.60;;;;;;5040261;28;20013;-86
2021/07/24 12:27:23;;;;;;;0.10;0.10;;;26.10;44.40;;;;;;5032961;28;20022;-87
2021/07/24 12:29:50;;;;;;;0.00;0.00;;;26.10;43.60;;;;;;5042795;28;20020;-87
2021/07/24 12:32:15;;;;;;;0.10;0.10;;;25.80;44.20;;;;;;5033096;28;20055;-87
2021/07/24 12:34:42;;;;;;;0.10;0.10;;;25.70;44.40;;;;;;5038849;28;20710;-86
2021/07/24 12:37:08;;;;;;;0.20;0.20;;;25.70;45.10;;;;;;5031906;28;20024;-86
2021/07/24 12:39:35;;;;;;;;;;;25.60;44.10;;;;;;5045140;28;20021;-87
2021/07/24 12:42:03;;;;;;;0.30;0.30;;;25.60;47.10;;;;;;5042105;28;19908;-87
2021/07/24 12:44:31;;;;;;;0.40;0.40;;;25.40;47.40;;;;;;5029326;28;20063;-86
2021/07/24 12:47:13;;;;;;;0.80;0.45;;;25.60;47.80;;;;;;5027311;28;20056;-87
2021/07/24 12:49:45;;;;;;;0.00;0.00;;;25.40;47.10;;;;;;5028033;28;20022;-87
2021/07/24 12:52:27;;;;;;;0.10;0.03;;;25.50;47.10;;;;;;5048349;28;20087;-87
2021/07/24 12:55:14;;;;;;;0.30;0.30;;;25.10;45.40;;;;;;5029918;28;20513;-89
2021/07/24 12:57:40;;;;;;;0.10;0.08;;;24.70;48.30;;;;;;5047697;28;20795;-87
2021/07/24 13:00:06;;;;;;;;;;;25.20;48.20;;;;;;5052215;28;20036;-87
2021/07/24 13:02:32;;;;;;;0.10;0.10;;;25.30;48.60;;;;;;5041283;28;19905;-85